sensor_id;sensor_type;location;lat;lon;timestamp;pressure;altitude;pressure_sealevel;temperature;humidity
62152;BME280;48139;47.474;19.034;2022-08-11T03:54:29;100795.72;;;22.09;45.42
62152;BME280;48139;47.474;19.034;2022-08-11T04:08:29;100792.72;;;22.02;46.39
62152;BME280;48139;47.474;19.034;2022-08-11T04:15:12;100796.44;;;22.21;44.98
62152;BME280;48139;47.474;19.034;2022-08-11T04:25:35;100799.16;;;22.49;43.99
62152;BME280;48139;47.474;19.034;2022-08-11T04:29:12;100802.25;;;22.45;43.72
62152;BME280;48139;47.474;19.034;2022-08-11T04:32:40;100802.25;;;22.45;43.55
62152;BME280;48139;47.474;19.034;2022-08-11T04:36:25;100810.69;;;22.50;43.27
62152;BME280;48139;47.474;19.034;2022-08-11T04:46:40;100815.91;;;22.51;43.38
62152;BME280;48139;47.474;19.034;2022-08-11T04:50:19;100817.72;;;22.51;43.37
62152;BME280;48139;47.474;19.034;2022-08-11T04:54:22;100807.34;;;22.58;44.31
62152;BME280;48139;47.474;19.034;2022-08-11T05:05:45;100811.16;;;22.65;43.71
62152;BME280;48139;47.474;19.034;2022-08-11T05:12:10;100805.69;;;23.33;41.05
62152;BME280;48139;47.474;19.034;2022-08-11T05:15:19;100810.66;;;23.09;41.70
62152;BME280;48139;47.474;19.034;2022-08-11T05:18:50;100814.44;;;23.16;41.33
62152;BME280;48139;47.474;19.034;2022-08-11T05:22:12;100818.75;;;23.46;41.06
62152;BME280;48139;47.474;19.034;2022-08-11T05:25:43;100820.06;;;23.52;40.55
62152;BME280;48139;47.474;19.034;2022-08-11T05:29:46;100826.69;;;23.48;40.55
62152;BME280;48139;47.474;19.034;2022-08-11T05:33:12;100833.53;;;24.06;39.91
62152;BME280;48139;47.474;19.034;2022-08-11T05:40:14;100835.16;;;24.27;39.99
62152;BME280;48139;47.474;19.034;2022-08-11T05:43:39;100832.09;;;24.22;39.76
62152;BME280;48139;47.474;19.034;2022-08-11T05:47:25;100840.28;;;23.74;40.25
62152;BME280;48139;47.474;19.034;2022-08-11T05:50:52;100837.03;;;24.44;39.47
62152;BME280;48139;47.474;19.034;2022-08-11T05:54:18;100834.09;;;24.47;38.93
62152;BME280;48139;47.474;19.034;2022-08-11T05:57:40;100833.72;;;24.32;39.04
62152;BME280;48139;47.474;19.034;2022-08-11T06:00:54;100832.91;;;24.49;38.71
62152;BME280;48139;47.474;19.034;2022-08-11T06:03:59;100843.28;;;24.80;39.56
62152;BME280;48139;47.474;19.034;2022-08-11T06:07:16;100845.09;;;24.89;39.20
62152;BME280;48139;47.474;19.034;2022-08-11T06:10:26;100846.53;;;24.83;38.92
62152;BME280;48139;47.474;19.034;2022-08-11T06:13:30;100841.75;;;25.05;38.32
62152;BME280;48139;47.474;19.034;2022-08-11T06:16:33;100840.13;;;24.94;38.00
62152;BME280;48139;47.474;19.034;2022-08-11T06:19:40;100842.16;;;24.82;39.75
62152;BME280;48139;47.474;19.034;2022-08-11T06:22:45;100845.03;;;25.16;39.18
62152;BME280;48139;47.474;19.034;2022-08-11T06:25:54;100834.72;;;25.47;37.52
62152;BME280;48139;47.474;19.034;2022-08-11T06:28:58;100837.03;;;25.60;37.51
62152;BME280;48139;47.474;19.034;2022-08-11T06:32:04;100832.75;;;25.31;37.03
62152;BME280;48139;47.474;19.034;2022-08-11T06:35:37;100837.66;;;25.01;37.81
62152;BME280;48139;47.474;19.034;2022-08-11T06:42:13;100839.31;;;25.81;36.54
62152;BME280;48139;47.474;19.034;2022-08-11T06:45:33;100837.53;;;25.63;36.05
62152;BME280;48139;47.474;19.034;2022-08-11T06:48:41;100833.72;;;25.66;35.93
62152;BME280;48139;47.474;19.034;2022-08-11T06:51:46;100819.25;;;25.93;36.43
62152;BME280;48139;47.474;19.034;2022-08-11T06:54:52;100825.25;;;25.87;35.27
62152;BME280;48139;47.474;19.034;2022-08-11T06:58:12;100826.44;;;26.18;35.16
62152;BME280;48139;47.474;19.034;2022-08-11T07:02:06;100832.19;;;26.23;34.83
62152;BME280;48139;47.474;19.034;2022-08-11T07:05:21;100823.47;;;25.95;35.62
62152;BME280;48139;47.474;19.034;2022-08-11T07:12:35;100825.91;;;26.40;34.22
62152;BME280;48139;47.474;19.034;2022-08-11T07:15:58;100823.97;;;25.99;34.98
62152;BME280;48139;47.474;19.034;2022-08-11T07:19:16;100820.59;;;26.23;34.85
62152;BME280;48139;47.474;19.034;2022-08-11T07:22:42;100818.31;;;26.02;34.65
62152;BME280;48139;47.474;19.034;2022-08-11T07:26:06;100819.16;;;26.02;34.59
62152;BME280;48139;47.474;19.034;2022-08-11T07:29:30;100817.13;;;25.96;34.90
62152;BME280;48139;47.474;19.034;2022-08-11T07:32:44;100823.47;;;25.95;35.77
62152;BME280;48139;47.474;19.034;2022-08-11T07:35:52;100815.63;;;26.02;34.80
62152;BME280;48139;47.474;19.034;2022-08-11T07:38:57;100830.47;;;26.56;34.60
62152;BME280;48139;47.474;19.034;2022-08-11T07:42:05;100819.44;;;26.83;35.01
62152;BME280;48139;47.474;19.034;2022-08-11T07:45:08;100825.75;;;26.50;34.99
62152;BME280;48139;47.474;19.034;2022-08-11T07:48:32;100818.44;;;26.84;35.27
62152;BME280;48139;47.474;19.034;2022-08-11T07:51:54;100817.91;;;26.73;33.08
62152;BME280;48139;47.474;19.034;2022-08-11T07:55:18;100818.25;;;26.78;32.71
62152;BME280;48139;47.474;19.034;2022-08-11T07:58:28;100809.69;;;26.82;32.77
62152;BME280;48139;47.474;19.034;2022-08-11T08:01:55;100810.22;;;26.94;33.55
62152;BME280;48139;47.474;19.034;2022-08-11T08:05:17;100807.91;;;26.91;32.42
62152;BME280;48139;47.474;19.034;2022-08-11T08:08:40;100804.16;;;26.84;31.83
62152;BME280;48139;47.474;19.034;2022-08-11T08:12:03;100802.50;;;27.07;32.64
62152;BME280;48139;47.474;19.034;2022-08-11T08:15:25;100802.84;;;27.53;31.17
62152;BME280;48139;47.474;19.034;2022-08-11T08:18:47;100796.81;;;27.10;31.37
62152;BME280;48139;47.474;19.034;2022-08-11T08:21:50;100804.19;;;27.24;30.96
62152;BME280;48139;47.474;19.034;2022-08-11T08:24:54;100797.28;;;27.06;31.55
62152;BME280;48139;47.474;19.034;2022-08-11T08:27:58;100792.91;;;27.45;31.38
62152;BME280;48139;47.474;19.034;2022-08-11T08:31:02;100793.25;;;27.34;31.32
62152;BME280;48139;47.474;19.034;2022-08-11T08:34:05;100789.56;;;27.27;31.57
62152;BME280;48139;47.474;19.034;2022-08-11T08:37:08;100789.03;;;27.72;30.35
62152;BME280;48139;47.474;19.034;2022-08-11T08:40:20;100783.53;;;28.04;30.51
62152;BME280;48139;47.474;19.034;2022-08-11T08:43:23;100787.00;;;28.13;29.76
62152;BME280;48139;47.474;19.034;2022-08-11T08:46:31;100783.72;;;28.42;30.74
62152;BME280;48139;47.474;19.034;2022-08-11T08:49:44;100778.50;;;28.40;30.47
62152;BME280;48139;47.474;19.034;2022-08-11T08:52:57;100781.22;;;28.32;29.56
62152;BME280;48139;47.474;19.034;2022-08-11T08:56:03;100777.81;;;27.99;30.70
62152;BME280;48139;47.474;19.034;2022-08-11T08:59:09;100773.66;;;27.81;30.82
62152;BME280;48139;47.474;19.034;2022-08-11T09:02:15;100773.75;;;27.40;30.56
62152;BME280;48139;47.474;19.034;2022-08-11T09:05:18;100768.06;;;27.98;31.48
62152;BME280;48139;47.474;19.034;2022-08-11T09:08:23;100773.22;;;28.08;29.87
62152;BME280;48139;47.474;19.034;2022-08-11T09:11:25;100774.69;;;28.27;29.21
62152;BME280;48139;47.474;19.034;2022-08-11T09:14:48;100771.00;;;29.04;27.72
62152;BME280;48139;47.474;19.034;2022-08-11T09:18:07;100755.06;;;29.61;29.58
62152;BME280;48139;47.474;19.034;2022-08-11T09:21:13;100755.91;;;29.62;27.12
62152;BME280;48139;47.474;19.034;2022-08-11T09:24:38;100752.84;;;29.36;26.42
62152;BME280;48139;47.474;19.034;2022-08-11T09:28:01;100756.47;;;29.43;25.73
62152;BME280;48139;47.474;19.034;2022-08-11T09:31:06;100751.03;;;29.28;24.28
62152;BME280;48139;47.474;19.034;2022-08-11T09:34:10;100733.97;;;29.36;25.00
62152;BME280;48139;47.474;19.034;2022-08-11T09:37:15;100745.59;;;29.13;24.02
62152;BME280;48139;47.474;19.034;2022-08-11T09:40:58;100727.81;;;29.42;26.69
62152;BME280;48139;47.474;19.034;2022-08-11T09:44:04;100739.53;;;29.78;24.04
62152;BME280;48139;47.474;19.034;2022-08-11T09:47:28;100735.31;;;30.05;23.77
62152;BME280;48139;47.474;19.034;2022-08-11T09:50:33;100728.19;;;29.97;22.41
62152;BME280;48139;47.474;19.034;2022-08-11T09:53:41;100725.72;;;29.29;23.76
62152;BME280;48139;47.474;19.034;2022-08-11T09:57:04;100731.66;;;29.10;27.29
62152;BME280;48139;47.474;19.034;2022-08-11T10:00:34;100721.72;;;28.87;25.00
62152;BME280;48139;47.474;19.034;2022-08-11T10:03:39;100718.06;;;28.58;25.53
62152;BME280;48139;47.474;19.034;2022-08-11T10:06:48;100732.81;;;28.16;26.46
62152;BME280;48139;47.474;19.034;2022-08-11T10:10:08;100727.78;;;28.05;26.93
62152;BME280;48139;47.474;19.034;2022-08-11T10:13:17;100729.44;;;28.14;29.79
62152;BME280;48139;47.474;19.034;2022-08-11T10:16:42;100730.38;;;27.90;27.81
62152;BME280;48139;47.474;19.034;2022-08-11T10:19:47;100724.31;;;27.88;28.38
62152;BME280;48139;47.474;19.034;2022-08-11T10:23:07;100722.31;;;28.52;29.02
62152;BME280;48139;47.474;19.034;2022-08-11T10:26:31;100713.91;;;28.78;26.83
62152;BME280;48139;47.474;19.034;2022-08-11T10:29:55;100703.28;;;29.28;26.23
62152;BME280;48139;47.474;19.034;2022-08-11T10:33:18;100704.81;;;28.94;26.87
62152;BME280;48139;47.474;19.034;2022-08-11T10:36:59;100695.44;;;29.19;26.32
62152;BME280;48139;47.474;19.034;2022-08-11T10:40:05;100690.09;;;29.63;27.45
62152;BME280;48139;47.474;19.034;2022-08-11T10:43:11;100694.56;;;29.85;26.52
62152;BME280;48139;47.474;19.034;2022-08-11T10:46:35;100683.81;;;30.06;23.80
62152;BME280;48139;47.474;19.034;2022-08-11T10:49:57;100690.66;;;29.58;24.44
62152;BME280;48139;47.474;19.034;2022-08-11T10:53:19;100686.38;;;29.49;24.52
62152;BME280;48139;47.474;19.034;2022-08-11T10:56:40;100685.81;;;29.39;25.00
62152;BME280;48139;47.474;19.034;2022-08-11T11:00:04;100684.72;;;29.34;26.33
62152;BME280;48139;47.474;19.034;2022-08-11T11:03:08;100678.91;;;29.22;24.32
62152;BME280;48139;47.474;19.034;2022-08-11T11:06:35;100671.13;;;29.42;27.62
62152;BME280;48139;47.474;19.034;2022-08-11T11:09:57;100667.97;;;29.89;23.53
62152;BME280;48139;47.474;19.034;2022-08-11T11:13:00;100665.53;;;30.30;25.28
62152;BME280;48139;47.474;19.034;2022-08-11T11:16:22;100656.97;;;30.05;22.89
62152;BME280;48139;47.474;19.034;2022-08-11T11:19:44;100657.00;;;29.90;24.04
62152;BME280;48139;47.474;19.034;2022-08-11T11:22:53;100645.06;;;29.99;22.27
62152;BME280;48139;47.474;19.034;2022-08-11T11:29:33;100649.28;;;30.66;22.34
62152;BME280;48139;47.474;19.034;2022-08-11T11:36:57;100631.31;;;30.79;22.36
62152;BME280;48139;47.474;19.034;2022-08-11T11:40:07;100630.88;;;30.55;21.44
62152;BME280;48139;47.474;19.034;2022-08-11T11:43:14;100625.22;;;30.50;20.81
62152;BME280;48139;47.474;19.034;2022-08-11T11:46:17;100622.97;;;30.81;20.46
62152;BME280;48139;47.474;19.034;2022-08-11T11:49:26;100613.69;;;30.41;20.48
62152;BME280;48139;47.474;19.034;2022-08-11T11:52:30;100613.72;;;30.05;21.21
62152;BME280;48139;47.474;19.034;2022-08-11T11:55:33;100613.69;;;30.20;21.42
62152;BME280;48139;47.474;19.034;2022-08-11T11:58:38;100622.94;;;29.75;21.99
62152;BME280;48139;47.474;19.034;2022-08-11T12:02:00;100613.19;;;29.59;22.62
62152;BME280;48139;47.474;19.034;2022-08-11T12:05:13;100613.94;;;28.94;23.20
62152;BME280;48139;47.474;19.034;2022-08-11T12:08:16;100611.53;;;28.62;23.19
62152;BME280;48139;47.474;19.034;2022-08-11T12:11:21;100615.91;;;28.63;23.82
62152;BME280;48139;47.474;19.034;2022-08-11T12:14:44;100594.56;;;28.76;23.56
62152;BME280;48139;47.474;19.034;2022-08-11T12:17:48;100594.22;;;28.94;23.69
62152;BME280;48139;47.474;19.034;2022-08-11T12:20:54;100587.44;;;29.12;23.60
62152;BME280;48139;47.474;19.034;2022-08-11T12:23:59;100595.34;;;29.28;24.74
62152;BME280;48139;47.474;19.034;2022-08-11T12:27:21;100592.47;;;29.45;24.10
62152;BME280;48139;47.474;19.034;2022-08-11T12:30:27;100581.75;;;29.51;23.21
62152;BME280;48139;47.474;19.034;2022-08-11T12:33:30;100587.75;;;29.68;24.09
62152;BME280;48139;47.474;19.034;2022-08-11T12:36:49;100581.41;;;29.76;22.50
62152;BME280;48139;47.474;19.034;2022-08-11T12:40:00;100583.06;;;29.91;22.90
62152;BME280;48139;47.474;19.034;2022-08-11T12:43:44;100575.28;;;29.67;22.89
62152;BME280;48139;47.474;19.034;2022-08-11T12:47:07;100576.56;;;29.35;23.48
62152;BME280;48139;47.474;19.034;2022-08-11T12:50:11;100575.22;;;29.31;24.11
62152;BME280;48139;47.474;19.034;2022-08-11T12:53:57;100567.13;;;29.46;24.40
62152;BME280;48139;47.474;19.034;2022-08-11T12:57:09;100563.03;;;29.50;24.26
62152;BME280;48139;47.474;19.034;2022-08-11T13:00:38;100559.28;;;29.65;24.17
62152;BME280;48139;47.474;19.034;2022-08-11T13:04:00;100553.97;;;29.57;23.36
62152;BME280;48139;47.474;19.034;2022-08-11T13:07:22;100551.31;;;29.79;23.25
62152;BME280;48139;47.474;19.034;2022-08-11T13:10:27;100544.00;;;29.94;23.32
62152;BME280;48139;47.474;19.034;2022-08-11T13:13:50;100551.72;;;29.61;22.91
62152;BME280;48139;47.474;19.034;2022-08-11T13:16:59;100538.00;;;29.26;23.25
62152;BME280;48139;47.474;19.034;2022-08-11T13:20:22;100541.06;;;29.23;23.05
62152;BME280;48139;47.474;19.034;2022-08-11T13:23:26;100537.78;;;29.57;24.19
62152;BME280;48139;47.474;19.034;2022-08-11T13:26:33;100533.09;;;29.87;22.61
62152;BME280;48139;47.474;19.034;2022-08-11T13:29:51;100530.41;;;29.87;23.22
62152;BME280;48139;47.474;19.034;2022-08-11T13:33:14;100535.37;;;29.84;24.15
62152;BME280;48139;47.474;19.034;2022-08-11T13:36:23;100532.56;;;29.56;25.26
62152;BME280;48139;47.474;19.034;2022-08-11T13:39:31;100525.22;;;29.50;25.17
62152;BME280;48139;47.474;19.034;2022-08-11T13:42:35;100534.50;;;29.41;25.38
62152;BME280;48139;47.474;19.034;2022-08-11T13:45:39;100528.66;;;29.08;25.79
62152;BME280;48139;47.474;19.034;2022-08-11T13:48:42;100527.22;;;28.68;26.56
62152;BME280;48139;47.474;19.034;2022-08-11T13:51:45;100527.22;;;28.68;26.37
62152;BME280;48139;47.474;19.034;2022-08-11T13:54:49;100530.34;;;28.79;26.17
62152;BME280;48139;47.474;19.034;2022-08-11T13:57:54;100524.13;;;28.79;26.70
62152;BME280;48139;47.474;19.034;2022-08-11T14:01:19;100523.81;;;28.74;26.67
62152;BME280;48139;47.474;19.034;2022-08-11T14:04:58;100519.75;;;28.78;26.83
62152;BME280;48139;47.474;19.034;2022-08-11T14:08:07;100514.72;;;28.90;26.53
62152;BME280;48139;47.474;19.034;2022-08-11T14:11:33;100514.41;;;28.99;26.16
62152;BME280;48139;47.474;19.034;2022-08-11T14:15:19;100511.03;;;29.26;26.03
62152;BME280;48139;47.474;19.034;2022-08-11T14:18:25;100512.06;;;29.40;26.06
62152;BME280;48139;47.474;19.034;2022-08-11T14:21:34;100502.09;;;29.41;25.50
62152;BME280;48139;47.474;19.034;2022-08-11T14:24:57;100502.88;;;29.35;25.46
62152;BME280;48139;47.474;19.034;2022-08-11T14:27:59;100506.47;;;29.42;25.55
62152;BME280;48139;47.474;19.034;2022-08-11T14:31:23;100504.09;;;29.53;25.42
62152;BME280;48139;47.474;19.034;2022-08-11T14:34:28;100501.06;;;29.42;25.56
62152;BME280;48139;47.474;19.034;2022-08-11T14:37:31;100501.69;;;29.44;25.09
62152;BME280;48139;47.474;19.034;2022-08-11T14:40:35;100501.00;;;29.35;25.05
62152;BME280;48139;47.474;19.034;2022-08-11T14:43:57;100489.81;;;29.23;25.29
62152;BME280;48139;47.474;19.034;2022-08-11T14:47:19;100495.59;;;29.20;25.17
62152;BME280;48139;47.474;19.034;2022-08-11T14:50:28;100486.22;;;29.02;25.74
62152;BME280;48139;47.474;19.034;2022-08-11T14:53:31;100488.66;;;28.97;25.61
62152;BME280;48139;47.474;19.034;2022-08-11T14:56:34;100492.00;;;28.99;25.38
62152;BME280;48139;47.474;19.034;2022-08-11T14:59:38;100489.50;;;28.82;25.57
62152;BME280;48139;47.474;19.034;2022-08-11T15:02:44;100487.16;;;28.94;25.50
62152;BME280;48139;47.474;19.034;2022-08-11T15:06:09;100485.88;;;28.90;25.19
62152;BME280;48139;47.474;19.034;2022-08-11T15:09:11;100487.81;;;28.96;25.10
62152;BME280;48139;47.474;19.034;2022-08-11T15:12:14;100483.38;;;28.88;25.22
62152;BME280;48139;47.474;19.034;2022-08-11T15:15:35;100489.50;;;28.82;25.75
62152;BME280;48139;47.474;19.034;2022-08-11T15:18:57;100491.19;;;28.83;25.28
62152;BME280;48139;47.474;19.034;2022-08-11T15:22:00;100491.37;;;28.82;25.18
62152;BME280;48139;47.474;19.034;2022-08-11T15:25:28;100481.81;;;28.79;25.09
62152;BME280;48139;47.474;19.034;2022-08-11T15:28:38;100491.63;;;28.72;25.17
